sensor_id;sensor_type;location;lat;lon;timestamp;pressure;altitude;pressure_sealevel;temperature;humidity
47985;BME280;33753;52.912;-7.342;2023-05-28T00:01:09;101388.25;;;13.25;100.00
47985;BME280;33753;52.912;-7.342;2023-05-28T00:03:37;101398.09;;;13.18;100.00
47985;BME280;33753;52.912;-7.342;2023-05-28T00:06:08;101386.56;;;13.16;100.00
47985;BME280;33753;52.912;-7.342;2023-05-28T00:08:37;101385.00;;;13.13;100.00
47985;BME280;33753;52.912;-7.342;2023-05-28T00:11:07;101387.91;;;13.12;100.00
47985;BME280;33753;52.912;-7.342;2023-05-28T00:13:35;101384.81;;;13.07;100.00
47985;BME280;33753;52.912;-7.342;2023-05-28T00:16:04;101384.81;;;13.07;100.00
47985;BME280;33753;52.912;-7.342;2023-05-28T00:18:32;101376.00;;;13.05;100.00
47985;BME280;33753;52.912;-7.342;2023-05-28T00:21:01;101384.13;;;13.05;100.00
47985;BME280;33753;52.912;-7.342;2023-05-28T00:23:29;101375.13;;;13.04;100.00
47985;BME280;33753;52.912;-7.342;2023-05-28T00:25:57;101380.06;;;13.01;100.00
47985;BME280;33753;52.912;-7.342;2023-05-28T00:28:27;101372.91;;;13.00;100.00
47985;BME280;33753;52.912;-7.342;2023-05-28T00:30:56;101370.53;;;12.96;100.00
47985;BME280;33753;52.912;-7.342;2023-05-28T00:33:24;101365.94;;;12.97;100.00
47985;BME280;33753;52.912;-7.342;2023-05-28T00:35:52;101362.53;;;12.95;100.00
47985;BME280;33753;52.912;-7.342;2023-05-28T00:38:24;101362.72;;;12.93;100.00
47985;BME280;33753;52.912;-7.342;2023-05-28T00:40:53;101363.06;;;12.90;100.00
47985;BME280;33753;52.912;-7.342;2023-05-28T00:43:22;101370.50;;;12.88;100.00
47985;BME280;33753;52.912;-7.342;2023-05-28T00:45:52;101371.16;;;12.82;100.00
47985;BME280;33753;52.912;-7.342;2023-05-28T00:48:21;101368.06;;;12.77;100.00
47985;BME280;33753;52.912;-7.342;2023-05-28T00:50:49;101374.50;;;12.68;100.00
47985;BME280;33753;52.912;-7.342;2023-05-28T00:53:17;101367.34;;;12.67;100.00
47985;BME280;33753;52.912;-7.342;2023-05-28T00:55:46;101369.41;;;12.65;100.00
47985;BME280;33753;52.912;-7.342;2023-05-28T00:58:15;101360.72;;;12.61;100.00
47985;BME280;33753;52.912;-7.342;2023-05-28T01:00:46;101369.34;;;12.56;100.00
47985;BME280;33753;52.912;-7.342;2023-05-28T01:03:16;101373.75;;;12.57;100.00
47985;BME280;33753;52.912;-7.342;2023-05-28T01:05:44;101378.50;;;12.55;100.00
47985;BME280;33753;52.912;-7.342;2023-05-28T01:08:13;101377.81;;;12.53;100.00
47985;BME280;33753;52.912;-7.342;2023-05-28T01:10:41;101385.25;;;12.51;100.00
47985;BME280;33753;52.912;-7.342;2023-05-28T01:13:10;101379.16;;;12.49;100.00
47985;BME280;33753;52.912;-7.342;2023-05-28T01:15:39;101376.78;;;12.46;100.00
47985;BME280;33753;52.912;-7.342;2023-05-28T01:18:07;101384.38;;;12.42;100.00
47985;BME280;33753;52.912;-7.342;2023-05-28T01:20:39;101379.47;;;12.46;100.00
47985;BME280;33753;52.912;-7.342;2023-05-28T01:23:10;101377.59;;;12.47;100.00
47985;BME280;33753;52.912;-7.342;2023-05-28T01:25:41;101382.50;;;12.43;100.00
47985;BME280;33753;52.912;-7.342;2023-05-28T01:28:12;101383.88;;;12.47;100.00
47985;BME280;33753;52.912;-7.342;2023-05-28T01:30:40;101389.63;;;12.44;100.00
47985;BME280;33753;52.912;-7.342;2023-05-28T01:33:11;101394.72;;;12.47;100.00
47985;BME280;33753;52.912;-7.342;2023-05-28T01:35:41;101379.47;;;12.46;100.00
47985;BME280;33753;52.912;-7.342;2023-05-28T01:38:10;101377.78;;;12.45;100.00
47985;BME280;33753;52.912;-7.342;2023-05-28T01:40:43;101377.06;;;12.43;100.00
47985;BME280;33753;52.912;-7.342;2023-05-28T01:43:12;101388.41;;;12.38;100.00
47985;BME280;33753;52.912;-7.342;2023-05-28T01:45:40;101383.09;;;12.28;100.00
47985;BME280;33753;52.912;-7.342;2023-05-28T01:48:09;101375.81;;;12.29;100.00
47985;BME280;33753;52.912;-7.342;2023-05-28T01:50:38;101383.41;;;12.25;100.00
47985;BME280;33753;52.912;-7.342;2023-05-28T01:53:06;101380.97;;;12.14;100.00
47985;BME280;33753;52.912;-7.342;2023-05-28T01:55:36;101379.75;;;12.08;100.00
47985;BME280;33753;52.912;-7.342;2023-05-28T01:58:06;101380.78;;;12.07;100.00
47985;BME280;33753;52.912;-7.342;2023-05-28T02:00:36;101379.22;;;12.05;100.00
47985;BME280;33753;52.912;-7.342;2023-05-28T02:03:07;101374.25;;;12.00;100.00
47985;BME280;33753;52.912;-7.342;2023-05-28T02:05:38;101376.75;;;11.93;100.00
47985;BME280;33753;52.912;-7.342;2023-05-28T02:08:07;101375.88;;;11.93;100.00
47985;BME280;33753;52.912;-7.342;2023-05-28T02:10:35;101372.31;;;11.92;100.00
47985;BME280;33753;52.912;-7.342;2023-05-28T02:13:05;101377.50;;;11.86;100.00
47985;BME280;33753;52.912;-7.342;2023-05-28T02:15:33;101377.66;;;11.84;100.00
47985;BME280;33753;52.912;-7.342;2023-05-28T02:18:02;101381.69;;;11.80;100.00
47985;BME280;33753;52.912;-7.342;2023-05-28T02:20:30;101379.63;;;11.74;100.00
47985;BME280;33753;52.912;-7.342;2023-05-28T02:22:59;101388.59;;;11.74;100.00
47985;BME280;33753;52.912;-7.342;2023-05-28T02:25:27;101387.06;;;11.72;100.00
47985;BME280;33753;52.912;-7.342;2023-05-28T02:27:55;101388.06;;;11.71;100.00
47985;BME280;33753;52.912;-7.342;2023-05-28T02:30:26;101382.34;;;11.74;100.00
47985;BME280;33753;52.912;-7.342;2023-05-28T02:32:54;101397.50;;;11.67;100.00
47985;BME280;33753;52.912;-7.342;2023-05-28T02:35:23;101384.97;;;11.66;100.00
47985;BME280;33753;52.912;-7.342;2023-05-28T02:37:52;101397.00;;;11.63;100.00
47985;BME280;33753;52.912;-7.342;2023-05-28T02:40:21;101395.81;;;11.66;100.00
47985;BME280;33753;52.912;-7.342;2023-05-28T02:42:49;101412.06;;;11.66;100.00
47985;BME280;33753;52.912;-7.342;2023-05-28T02:45:17;101400.84;;;11.61;100.00
47985;BME280;33753;52.912;-7.342;2023-05-28T02:47:47;101400.13;;;11.58;100.00
47985;BME280;33753;52.912;-7.342;2023-05-28T02:50:18;101408.22;;;11.50;100.00
47985;BME280;33753;52.912;-7.342;2023-05-28T02:53:09;101413.75;;;11.49;100.00
47985;BME280;33753;52.912;-7.342;2023-05-28T02:55:37;101412.25;;;11.46;100.00
47985;BME280;33753;52.912;-7.342;2023-05-28T02:58:06;101422.81;;;11.39;100.00
47985;BME280;33753;52.912;-7.342;2023-05-28T03:00:34;101425.38;;;11.41;100.00
47985;BME280;33753;52.912;-7.342;2023-05-28T03:03:04;101418.41;;;11.38;100.00
47985;BME280;33753;52.912;-7.342;2023-05-28T03:05:32;101425.84;;;11.36;100.00
47985;BME280;33753;52.912;-7.342;2023-05-28T03:08:02;101432.09;;;11.37;100.00
47985;BME280;33753;52.912;-7.342;2023-05-28T03:10:30;101433.81;;;11.38;100.00
47985;BME280;33753;52.912;-7.342;2023-05-28T03:12:58;101441.94;;;11.38;100.00
47985;BME280;33753;52.912;-7.342;2023-05-28T03:15:30;101434.66;;;11.38;100.00
47985;BME280;33753;52.912;-7.342;2023-05-28T03:17:59;101450.75;;;11.40;100.00
47985;BME280;33753;52.912;-7.342;2023-05-28T03:20:32;101450.75;;;11.40;100.00
47985;BME280;33753;52.912;-7.342;2023-05-28T03:23:01;101454.03;;;11.44;100.00
47985;BME280;33753;52.912;-7.342;2023-05-28T03:25:37;101465.56;;;11.46;100.00
47985;BME280;33753;52.912;-7.342;2023-05-28T03:28:05;101463.56;;;11.48;100.00
47985;BME280;33753;52.912;-7.342;2023-05-28T03:30:47;101465.97;;;11.51;100.00
47985;BME280;33753;52.912;-7.342;2023-05-28T03:33:17;101460.06;;;11.55;100.00
47985;BME280;33753;52.912;-7.342;2023-05-28T03:35:47;101458.75;;;11.59;100.00
47985;BME280;33753;52.912;-7.342;2023-05-28T03:38:16;101458.06;;;11.57;100.00
47985;BME280;33753;52.912;-7.342;2023-05-28T03:40:45;101474.34;;;11.57;100.00
47985;BME280;33753;52.912;-7.342;2023-05-28T03:43:13;101472.31;;;11.59;100.00
47985;BME280;33753;52.912;-7.342;2023-05-28T03:45:42;101476.09;;;11.67;100.00
47985;BME280;33753;52.912;-7.342;2023-05-28T03:48:11;101473.97;;;11.70;100.00
47985;BME280;33753;52.912;-7.342;2023-05-28T03:50:40;101480.22;;;11.71;100.00
47985;BME280;33753;52.912;-7.342;2023-05-28T03:53:10;101471.47;;;11.77;100.00
47985;BME280;33753;52.912;-7.342;2023-05-28T03:55:38;101471.88;;;11.82;100.00
47985;BME280;33753;52.912;-7.342;2023-05-28T03:58:07;101472.53;;;11.84;100.00
47985;BME280;33753;52.912;-7.342;2023-05-28T04:00:36;101473.25;;;11.86;100.00
47985;BME280;33753;52.912;-7.342;2023-05-28T04:03:04;101471.22;;;11.88;100.00
47985;BME280;33753;52.912;-7.342;2023-05-28T04:05:35;101480.91;;;11.91;100.00
47985;BME280;33753;52.912;-7.342;2023-05-28T04:08:03;101469.22;;;11.90;100.00
47985;BME280;33753;52.912;-7.342;2023-05-28T04:10:33;101468.94;;;11.93;100.00
47985;BME280;33753;52.912;-7.342;2023-05-28T04:13:01;101472.34;;;11.96;100.00
47985;BME280;33753;52.912;-7.342;2023-05-28T04:15:30;101466.59;;;11.99;100.00
47985;BME280;33753;52.912;-7.342;2023-05-28T04:18:00;101470.88;;;12.01;100.00
47985;BME280;33753;52.912;-7.342;2023-05-28T04:20:29;101469.88;;;12.02;100.00
47985;BME280;33753;52.912;-7.342;2023-05-28T04:22:57;101475.97;;;12.04;100.00
47985;BME280;33753;52.912;-7.342;2023-05-28T04:25:26;101475.13;;;12.04;100.00
47985;BME280;33753;52.912;-7.342;2023-05-28T04:27:58;101479.41;;;12.06;100.00
47985;BME280;33753;52.912;-7.342;2023-05-28T04:30:28;101473.81;;;12.08;100.00
47985;BME280;33753;52.912;-7.342;2023-05-28T04:32:57;101477.94;;;12.12;100.00
47985;BME280;33753;52.912;-7.342;2023-05-28T04:35:25;101474.19;;;12.13;100.00
47985;BME280;33753;52.912;-7.342;2023-05-28T04:37:55;101474.06;;;12.15;100.00
47985;BME280;33753;52.912;-7.342;2023-05-28T04:40:24;101481.41;;;12.22;100.00
47985;BME280;33753;52.912;-7.342;2023-05-28T04:42:52;101480.41;;;12.23;100.00
47985;BME280;33753;52.912;-7.342;2023-05-28T04:45:23;101472.09;;;12.25;100.00
47985;BME280;33753;52.912;-7.342;2023-05-28T04:47:53;101477.69;;;12.23;100.00
47985;BME280;33753;52.912;-7.342;2023-05-28T04:50:21;101476.66;;;12.24;100.00
47985;BME280;33753;52.912;-7.342;2023-05-28T04:52:53;101481.88;;;12.18;100.00
47985;BME280;33753;52.912;-7.342;2023-05-28T04:55:21;101470.88;;;12.19;100.00
47985;BME280;33753;52.912;-7.342;2023-05-28T04:57:50;101479.84;;;12.20;100.00
47985;BME280;33753;52.912;-7.342;2023-05-28T05:00:19;101477.59;;;12.15;100.00
47985;BME280;33753;52.912;-7.342;2023-05-28T05:02:48;101483.03;;;12.15;100.00
47985;BME280;33753;52.912;-7.342;2023-05-28T05:05:18;101494.50;;;12.09;100.00
47985;BME280;33753;52.912;-7.342;2023-05-28T05:07:47;101505.16;;;11.92;100.00
47985;BME280;33753;52.912;-7.342;2023-05-28T05:10:15;101498.97;;;11.82;100.00
47985;BME280;33753;52.912;-7.342;2023-05-28T05:12:43;101507.38;;;11.61;100.00
47985;BME280;33753;52.912;-7.342;2023-05-28T05:15:12;101499.38;;;11.41;100.00
47985;BME280;33753;52.912;-7.342;2023-05-28T05:17:41;101504.72;;;11.33;100.00
47985;BME280;33753;52.912;-7.342;2023-05-28T05:20:12;101497.66;;;11.13;100.00
47985;BME280;33753;52.912;-7.342;2023-05-28T05:22:41;101497.31;;;10.98;100.00
47985;BME280;33753;52.912;-7.342;2023-05-28T05:25:09;101482.09;;;10.87;100.00
47985;BME280;33753;52.912;-7.342;2023-05-28T05:27:41;101479.00;;;10.82;100.00
47985;BME280;33753;52.912;-7.342;2023-05-28T05:30:09;101480.59;;;10.75;100.00
47985;BME280;33753;52.912;-7.342;2023-05-28T05:37:36;101472.53;;;10.45;100.00
47985;BME280;33753;52.912;-7.342;2023-05-28T05:40:21;101486.50;;;10.41;100.00
47985;BME280;33753;52.912;-7.342;2023-05-28T05:43:00;101479.25;;;10.41;100.00
47985;BME280;33753;52.912;-7.342;2023-05-28T05:45:28;101480.81;;;10.34;100.00
47985;BME280;33753;52.912;-7.342;2023-05-28T05:47:57;101481.66;;;10.34;100.00
47985;BME280;33753;52.912;-7.342;2023-05-28T05:50:25;101481.94;;;10.31;100.00
47985;BME280;33753;52.912;-7.342;2023-05-28T05:52:55;101488.47;;;10.29;100.00
47985;BME280;33753;52.912;-7.342;2023-05-28T05:55:26;101493.34;;;10.35;100.00
47985;BME280;33753;52.912;-7.342;2023-05-28T05:57:54;101487.06;;;10.34;100.00
47985;BME280;33753;52.912;-7.342;2023-05-28T06:00:25;101473.97;;;10.30;100.00
47985;BME280;33753;52.912;-7.342;2023-05-28T06:02:56;101477.66;;;10.29;100.00
47985;BME280;33753;52.912;-7.342;2023-05-28T06:05:45;101488.34;;;10.30;100.00
47985;BME280;33753;52.912;-7.342;2023-05-28T06:08:35;101496.19;;;10.24;100.00
47985;BME280;33753;52.912;-7.342;2023-05-28T06:11:15;101489.66;;;10.16;100.00
47985;BME280;33753;52.912;-7.342;2023-05-28T06:13:43;101494.06;;;10.17;100.00
47985;BME280;33753;52.912;-7.342;2023-05-28T06:16:12;101488.91;;;10.14;100.00
47985;BME280;33753;52.912;-7.342;2023-05-28T06:18:40;101481.69;;;10.15;100.00
47985;BME280;33753;52.912;-7.342;2023-05-28T06:21:10;101481.25;;;10.10;100.00
47985;BME280;33753;52.912;-7.342;2023-05-28T06:23:41;101486.22;;;10.14;100.00
47985;BME280;33753;52.912;-7.342;2023-05-28T06:26:10;101478.41;;;10.11;100.00
47985;BME280;33753;52.912;-7.342;2023-05-28T06:28:39;101479.41;;;10.10;100.00
47985;BME280;33753;52.912;-7.342;2023-05-28T06:31:07;101476.56;;;10.12;100.00
47985;BME280;33753;52.912;-7.342;2023-05-28T06:33:37;101482.81;;;10.12;100.00
47985;BME280;33753;52.912;-7.342;2023-05-28T06:36:06;101486.94;;;10.16;100.00
47985;BME280;33753;52.912;-7.342;2023-05-28T06:38:35;101487.09;;;10.25;100.00
47985;BME280;33753;52.912;-7.342;2023-05-28T06:41:05;101487.94;;;10.25;100.00
47985;BME280;33753;52.912;-7.342;2023-05-28T06:43:41;101492.34;;;10.26;100.00
47985;BME280;33753;52.912;-7.342;2023-05-28T06:46:16;101485.34;;;10.33;100.00
47985;BME280;33753;52.912;-7.342;2023-05-28T06:48:44;101480.53;;;10.37;100.00
47985;BME280;33753;52.912;-7.342;2023-05-28T06:51:13;101484.34;;;10.44;100.00
47985;BME280;33753;52.912;-7.342;2023-05-28T06:53:41;101479.66;;;10.56;100.00
47985;BME280;33753;52.912;-7.342;2023-05-28T06:56:12;101488.47;;;10.58;100.00
47985;BME280;33753;52.912;-7.342;2023-05-28T06:58:43;101490.41;;;10.66;100.00
47985;BME280;33753;52.912;-7.342;2023-05-28T07:01:41;101491.53;;;10.73;100.00
47985;BME280;33753;52.912;-7.342;2023-05-28T07:04:33;101491.28;;;10.76;100.00
47985;BME280;33753;52.912;-7.342;2023-05-28T07:07:08;101490.06;;;10.88;100.00
47985;BME280;33753;52.912;-7.342;2023-05-28T07:09:37;101492.91;;;10.97;100.00
47985;BME280;33753;52.912;-7.342;2023-05-28T07:12:08;101491.16;;;11.05;100.00
47985;BME280;33753;52.912;-7.342;2023-05-28T07:14:39;101484.84;;;11.15;100.00
47985;BME280;33753;52.912;-7.342;2023-05-28T07:17:07;101483.78;;;11.26;100.00
47985;BME280;33753;52.912;-7.342;2023-05-28T07:19:35;101475.59;;;11.35;100.00
47985;BME280;33753;52.912;-7.342;2023-05-28T07:22:04;101482.06;;;11.52;100.00
47985;BME280;33753;52.912;-7.342;2023-05-28T07:24:32;101481.38;;;11.68;100.00
47985;BME280;33753;52.912;-7.342;2023-05-28T07:27:00;101479.59;;;11.77;100.00
47985;BME280;33753;52.912;-7.342;2023-05-28T07:29:31;101473.56;;;11.83;100.00
47985;BME280;33753;52.912;-7.342;2023-05-28T07:32:00;101476.19;;;11.93;100.00
47985;BME280;33753;52.912;-7.342;2023-05-28T07:34:31;101474.81;;;12.07;100.00
47985;BME280;33753;52.912;-7.342;2023-05-28T07:37:00;101476.34;;;12.27;100.00
47985;BME280;33753;52.912;-7.342;2023-05-28T07:39:29;101474.47;;;12.46;100.00
47985;BME280;33753;52.912;-7.342;2023-05-28T07:41:57;101470.78;;;12.55;100.00
47985;BME280;33753;52.912;-7.342;2023-05-28T07:44:33;101471.91;;;12.71;100.00
47985;BME280;33753;52.912;-7.342;2023-05-28T07:47:02;101472.22;;;12.68;100.00
47985;BME280;33753;52.912;-7.342;2023-05-28T07:49:59;101480.81;;;12.89;100.00
47985;BME280;33753;52.912;-7.342;2023-05-28T07:52:46;101470.34;;;13.03;100.00
47985;BME280;33753;52.912;-7.342;2023-05-28T07:55:16;101473.09;;;13.11;100.00
47985;BME280;33753;52.912;-7.342;2023-05-28T07:57:45;101472.44;;;13.17;100.00
47985;BME280;33753;52.912;-7.342;2023-05-28T08:00:15;101464.34;;;13.25;100.00
47985;BME280;33753;52.912;-7.342;2023-05-28T08:02:52;101477.50;;;13.46;100.00
47985;BME280;33753;52.912;-7.342;2023-05-28T08:05:33;101482.06;;;13.38;100.00
47985;BME280;33753;52.912;-7.342;2023-05-28T08:08:01;101487.38;;;13.13;100.00
47985;BME280;33753;52.912;-7.342;2023-05-28T08:10:30;101486.00;;;13.09;100.00
47985;BME280;33753;52.912;-7.342;2023-05-28T08:12:59;101485.25;;;12.99;100.00
47985;BME280;33753;52.912;-7.342;2023-05-28T08:15:28;101486.75;;;12.93;100.00
47985;BME280;33753;52.912;-7.342;2023-05-28T08:17:59;101481.75;;;13.06;100.00
47985;BME280;33753;52.912;-7.342;2023-05-28T08:20:28;101479.69;;;13.35;100.00
47985;BME280;33753;52.912;-7.342;2023-05-28T08:23:11;101492.16;;;13.62;100.00
47985;BME280;33753;52.912;-7.342;2023-05-28T08:25:39;101485.06;;;13.94;100.00
47985;BME280;33753;52.912;-7.342;2023-05-28T08:28:17;101481.50;;;14.34;100.00
47985;BME280;33753;52.912;-7.342;2023-05-28T08:30:48;101487.63;;;14.45;100.00
47985;BME280;33753;52.912;-7.342;2023-05-28T08:33:26;101481.53;;;14.18;100.00
47985;BME280;33753;52.912;-7.342;2023-05-28T08:35:55;101478.09;;;14.24;100.00
47985;BME280;33753;52.912;-7.342;2023-05-28T08:38:25;101486.28;;;14.24;100.00
47985;BME280;33753;52.912;-7.342;2023-05-28T08:40:54;101474.88;;;14.37;100.00
47985;BME280;33753;52.912;-7.342;2023-05-28T08:43:23;101470.22;;;14.79;100.00
47985;BME280;33753;52.912;-7.342;2023-05-28T08:45:54;101470.44;;;15.17;100.00
47985;BME280;33753;52.912;-7.342;2023-05-28T08:48:33;101475.34;;;15.84;100.00
47985;BME280;33753;52.912;-7.342;2023-05-28T08:51:03;101461.56;;;16.24;100.00
47985;BME280;33753;52.912;-7.342;2023-05-28T08:53:38;101467.06;;;16.39;100.00
47985;BME280;33753;52.912;-7.342;2023-05-28T08:56:08;101455.78;;;16.42;100.00
47985;BME280;33753;52.912;-7.342;2023-05-28T08:58:38;101454.69;;;16.66;100.00
47985;BME280;33753;52.912;-7.342;2023-05-28T09:01:09;101455.31;;;16.83;100.00
47985;BME280;33753;52.912;-7.342;2023-05-28T09:03:43;101459.81;;;16.99;100.00
47985;BME280;33753;52.912;-7.342;2023-05-28T09:06:17;101453.72;;;17.19;100.00
47985;BME280;33753;52.912;-7.342;2023-05-28T09:08:46;101454.59;;;17.56;100.00
47985;BME280;33753;52.912;-7.342;2023-05-28T09:11:31;101445.56;;;17.40;100.00
47985;BME280;33753;52.912;-7.342;2023-05-28T09:14:07;101435.03;;;17.37;100.00
47985;BME280;33753;52.912;-7.342;2023-05-28T09:16:40;101449.41;;;17.46;100.00
47985;BME280;33753;52.912;-7.342;2023-05-28T09:19:15;101450.81;;;17.93;100.00
47985;BME280;33753;52.912;-7.342;2023-05-28T09:21:51;101437.66;;;18.32;100.00
47985;BME280;33753;52.912;-7.342;2023-05-28T09:24:22;101439.31;;;18.26;100.00
47985;BME280;33753;52.912;-7.342;2023-05-28T09:27:11;101441.13;;;18.47;100.00
47985;BME280;33753;52.912;-7.342;2023-05-28T09:29:40;101434.31;;;18.65;100.00
47985;BME280;33753;52.912;-7.342;2023-05-28T09:32:11;101439.88;;;19.20;100.00
47985;BME280;33753;52.912;-7.342;2023-05-28T09:34:40;101438.91;;;19.41;100.00
47985;BME280;33753;52.912;-7.342;2023-05-28T09:37:10;101431.53;;;19.48;100.00
47985;BME280;33753;52.912;-7.342;2023-05-28T09:39:38;101435.66;;;20.06;100.00
47985;BME280;33753;52.912;-7.342;2023-05-28T09:42:07;101430.38;;;20.05;100.00
47985;BME280;33753;52.912;-7.342;2023-05-28T09:44:37;101424.25;;;19.96;100.00
47985;BME280;33753;52.912;-7.342;2023-05-28T09:47:13;101434.63;;;20.20;100.00
47985;BME280;33753;52.912;-7.342;2023-05-28T09:49:42;101428.03;;;20.22;100.00
47985;BME280;33753;52.912;-7.342;2023-05-28T09:52:13;101429.94;;;19.88;100.00
47985;BME280;33753;52.912;-7.342;2023-05-28T09:54:45;101430.53;;;19.76;100.00
47985;BME280;33753;52.912;-7.342;2023-05-28T09:57:15;101421.28;;;20.04;100.00
47985;BME280;33753;52.912;-7.342;2023-05-28T09:59:43;101429.97;;;20.01;100.00
47985;BME280;33753;52.912;-7.342;2023-05-28T10:02:20;101436.00;;;19.63;100.00
47985;BME280;33753;52.912;-7.342;2023-05-28T10:04:52;101435.41;;;19.88;100.00
47985;BME280;33753;52.912;-7.342;2023-05-28T10:07:21;101441.78;;;19.95;100.00
47985;BME280;33753;52.912;-7.342;2023-05-28T10:09:50;101441.78;;;20.08;100.00
47985;BME280;33753;52.912;-7.342;2023-05-28T10:12:20;101435.47;;;20.28;100.00
47985;BME280;33753;52.912;-7.342;2023-05-28T10:14:50;101449.16;;;20.41;100.00
47985;BME280;33753;52.912;-7.342;2023-05-28T10:17:21;101438.41;;;19.93;100.00
47985;BME280;33753;52.912;-7.342;2023-05-28T10:19:50;101430.56;;;19.83;100.00
47985;BME280;33753;52.912;-7.342;2023-05-28T10:22:18;101445.09;;;19.77;100.00
47985;BME280;33753;52.912;-7.342;2023-05-28T10:24:47;101440.28;;;19.85;100.00
47985;BME280;33753;52.912;-7.342;2023-05-28T10:27:16;101443.03;;;19.99;100.00
47985;BME280;33753;52.912;-7.342;2023-05-28T10:29:45;101437.13;;;20.42;100.00
47985;BME280;33753;52.912;-7.342;2023-05-28T10:32:14;101446.03;;;20.11;100.00
47985;BME280;33753;52.912;-7.342;2023-05-28T10:34:45;101435.00;;;20.17;100.00
47985;BME280;33753;52.912;-7.342;2023-05-28T10:37:14;101438.81;;;19.83;100.00
47985;BME280;33753;52.912;-7.342;2023-05-28T10:39:50;101446.63;;;19.93;100.00
47985;BME280;33753;52.912;-7.342;2023-05-28T10:42:18;101443.91;;;20.19;100.00
47985;BME280;33753;52.912;-7.342;2023-05-28T10:44:49;101441.75;;;20.55;100.00
47985;BME280;33753;52.912;-7.342;2023-05-28T10:47:17;101441.56;;;20.57;100.00
47985;BME280;33753;52.912;-7.342;2023-05-28T10:49:58;101446.47;;;21.13;100.00
47985;BME280;33753;52.912;-7.342;2023-05-28T10:52:42;101448.09;;;20.82;100.00
47985;BME280;33753;52.912;-7.342;2023-05-28T10:55:11;101437.13;;;20.35;100.00
47985;BME280;33753;52.912;-7.342;2023-05-28T10:57:41;101438.97;;;20.62;100.00
47985;BME280;33753;52.912;-7.342;2023-05-28T11:00:10;101439.22;;;20.53;100.00
47985;BME280;33753;52.912;-7.342;2023-05-28T11:02:42;101422.00;;;20.92;100.00
47985;BME280;33753;52.912;-7.342;2023-05-28T11:05:17;101429.38;;;21.04;100.00
47985;BME280;33753;52.912;-7.342;2023-05-28T11:07:54;101423.78;;;21.24;100.00
47985;BME280;33753;52.912;-7.342;2023-05-28T11:10:23;101429.19;;;21.51;100.00
47985;BME280;33753;52.912;-7.342;2023-05-28T11:12:59;101431.06;;;21.89;100.00
47985;BME280;33753;52.912;-7.342;2023-05-28T11:15:31;101425.56;;;21.51;100.00
47985;BME280;33753;52.912;-7.342;2023-05-28T11:18:04;101421.13;;;21.56;100.00
47985;BME280;33753;52.912;-7.342;2023-05-28T11:20:43;101409.53;;;21.41;100.00
47985;BME280;33753;52.912;-7.342;2023-05-28T11:23:15;101410.91;;;21.18;100.00
47985;BME280;33753;52.912;-7.342;2023-05-28T11:25:47;101410.66;;;21.27;100.00
47985;BME280;33753;52.912;-7.342;2023-05-28T11:28:19;101403.44;;;21.71;100.00
47985;BME280;33753;52.912;-7.342;2023-05-28T11:30:52;101410.63;;;21.33;100.00
47985;BME280;33753;52.912;-7.342;2023-05-28T11:33:25;101413.00;;;20.71;100.00
47985;BME280;33753;52.912;-7.342;2023-05-28T11:36:03;101404.50;;;20.66;100.00
47985;BME280;33753;52.912;-7.342;2023-05-28T11:38:36;101406.63;;;20.70;100.00
47985;BME280;33753;52.912;-7.342;2023-05-28T11:41:09;101406.25;;;20.67;100.00
47985;BME280;33753;52.912;-7.342;2023-05-28T11:43:40;101406.84;;;20.76;100.00
47985;BME280;33753;52.912;-7.342;2023-05-28T11:46:13;101393.41;;;21.06;100.00
47985;BME280;33753;52.912;-7.342;2023-05-28T11:48:47;101400.50;;;21.20;100.00
47985;BME280;33753;52.912;-7.342;2023-05-28T11:51:24;101394.34;;;20.80;100.00
47985;BME280;33753;52.912;-7.342;2023-05-28T11:53:56;101400.66;;;20.94;100.00
47985;BME280;33753;52.912;-7.342;2023-05-28T11:56:26;101392.59;;;21.37;100.00
47985;BME280;33753;52.912;-7.342;2023-05-28T11:58:58;101398.31;;;21.74;100.00
47985;BME280;33753;52.912;-7.342;2023-05-28T12:01:32;101389.53;;;21.91;100.00
47985;BME280;33753;52.912;-7.342;2023-05-28T12:04:07;101386.28;;;21.69;100.00
47985;BME280;33753;52.912;-7.342;2023-05-28T12:06:55;101386.88;;;22.03;100.00
47985;BME280;33753;52.912;-7.342;2023-05-28T12:09:23;101397.00;;;21.45;100.00
47985;BME280;33753;52.912;-7.342;2023-05-28T12:12:04;101387.19;;;21.63;100.00
47985;BME280;33753;52.912;-7.342;2023-05-28T12:14:34;101387.16;;;21.69;100.00
47985;BME280;33753;52.912;-7.342;2023-05-28T12:17:06;101374.78;;;21.08;100.00
47985;BME280;33753;52.912;-7.342;2023-05-28T12:19:36;101379.56;;;20.74;100.00
47985;BME280;33753;52.912;-7.342;2023-05-28T12:22:14;101382.94;;;20.63;100.00
47985;BME280;33753;52.912;-7.342;2023-05-28T12:24:49;101387.19;;;20.72;100.00
47985;BME280;33753;52.912;-7.342;2023-05-28T12:27:23;101375.88;;;20.08;100.00
47985;BME280;33753;52.912;-7.342;2023-05-28T12:29:55;101378.41;;;19.96;100.00
47985;BME280;33753;52.912;-7.342;2023-05-28T12:32:24;101369.09;;;20.04;100.00
47985;BME280;33753;52.912;-7.342;2023-05-28T12:35:00;101373.56;;;20.05;100.00
47985;BME280;33753;52.912;-7.342;2023-05-28T12:37:35;101366.97;;;20.06;100.00
47985;BME280;33753;52.912;-7.342;2023-05-28T12:40:09;101368.00;;;20.45;100.00
47985;BME280;33753;52.912;-7.342;2023-05-28T12:42:41;101372.84;;;20.50;100.00
47985;BME280;33753;52.912;-7.342;2023-05-28T12:45:10;101368.22;;;20.30;100.00
47985;BME280;33753;52.912;-7.342;2023-05-28T12:47:38;101366.13;;;20.19;100.00
47985;BME280;33753;52.912;-7.342;2023-05-28T12:50:07;101358.69;;;20.46;100.00
47985;BME280;33753;52.912;-7.342;2023-05-28T12:52:39;101356.63;;;20.22;100.00
47985;BME280;33753;52.912;-7.342;2023-05-28T12:55:10;101375.44;;;20.11;100.00